Time,TemperatureF,DewpointF,PressureIn,WindDirection,WindDirectionDegrees,WindSpeedMPH,WindSpeedGustMPH,Humidity,HourlyPrecipIn,Conditions,Clouds,dailyrainin,SoftwareType,DateUTC
2013-10-27 00:00:00,41.0,-99.9,29.96,West,280,17.0,-999.0,-999,-99.99,,,-99.99,,2013-10-27 04:00:00,
2013-10-27 00:44:00,41.0,-99.9,29.96,West,280,17.0,-999.0,-999,-99.99,,,-99.99,,2013-10-27 04:44:00,
2013-10-27 00:54:00,41.0,-99.9,29.96,West,280,17.0,-999.0,-999,-99.99,,,-99.99,,2013-10-27 04:54:00,
2013-10-27 01:00:00,41.0,-99.9,29.96,WNW,300,17.0,-999.0,-999,-99.99,,,-99.99,,2013-10-27 05:00:00,
2013-10-27 01:43:00,41.0,-99.9,29.96,WNW,300,17.0,-999.0,-999,-99.99,,,-99.99,,2013-10-27 05:43:00,
2013-10-27 01:52:00,41.0,-99.9,29.96,WNW,300,17.0,-999.0,-999,-99.99,,,-99.99,,2013-10-27 05:52:00,
2013-10-27 02:00:00,37.0,-99.9,29.95,WNW,290,9.0,-999.0,-999,-99.99,,,-99.99,,2013-10-27 06:00:00,
2013-10-27 02:42:00,37.0,-99.9,29.95,WNW,290,9.0,-999.0,-999,-99.99,,,-99.99,,2013-10-27 06:42:00,
2013-10-27 02:53:00,37.0,-99.9,29.95,WNW,290,9.0,-999.0,-999,-99.99,,,-99.99,,2013-10-27 06:53:00,
2013-10-27 03:00:00,36.0,-99.9,29.95,WNW,290,6.0,-999.0,-999,-99.99,,,-99.99,,2013-10-27 07:00:00,
2013-10-27 03:42:00,36.0,-99.9,29.95,WNW,290,6.0,-999.0,-999,-99.99,,,-99.99,,2013-10-27 07:42:00,
2013-10-27 03:53:00,36.0,-99.9,29.95,WNW,290,6.0,-999.0,-999,-99.99,,,-99.99,,2013-10-27 07:53:00,
2013-10-27 04:00:00,36.0,-99.9,29.94,West,270,9.0,-999.0,-999,-99.99,,,-99.99,,2013-10-27 08:00:00,
2013-10-27 04:42:00,36.0,-99.9,29.94,West,270,9.0,-999.0,-999,-99.99,,,-99.99,,2013-10-27 08:42:00,
2013-10-27 04:52:00,36.0,-99.9,29.94,West,270,9.0,-999.0,-999,-99.99,,,-99.99,,2013-10-27 08:52:00,
2013-10-27 05:00:00,38.0,-99.9,29.91,West,280,21.0,-999.0,-999,-99.99,,,-99.99,,2013-10-27 09:00:00,
2013-10-27 05:43:00,38.0,-99.9,29.91,West,280,21.0,-999.0,-999,-99.99,,,-99.99,,2013-10-27 09:43:00,
2013-10-27 05:54:00,38.0,-99.9,29.91,West,280,21.0,-999.0,-999,-99.99,,,-99.99,,2013-10-27 09:54:00,
2013-10-27 06:00:00,38.0,-99.9,29.93,West,270,22.0,-999.0,-999,-99.99,,,-99.99,,2013-10-27 10:00:00,
2013-10-27 06:42:00,38.0,-99.9,29.93,West,270,22.0,-999.0,-999,-99.99,,,-99.99,,2013-10-27 10:42:00,
2013-10-27 06:53:00,38.0,-99.9,29.93,West,270,22.0,-999.0,-999,-99.99,,,-99.99,,2013-10-27 10:53:00,
2013-10-27 07:00:00,39.0,-99.9,29.94,West,270,23.0,-999.0,-999,-99.99,,,-99.99,,2013-10-27 11:00:00,
2013-10-27 07:42:00,39.0,-99.9,29.94,West,270,23.0,-999.0,-999,-99.99,,,-99.99,,2013-10-27 11:42:00,
2013-10-27 07:52:00,39.0,-99.9,29.94,West,270,23.0,-999.0,-999,-99.99,,,-99.99,,2013-10-27 11:52:00,
2013-10-27 08:00:00,38.0,-99.9,29.95,WSW,250,22.0,-999.0,-999,-99.99,,,-99.99,,2013-10-27 12:00:00,
2013-10-27 08:42:00,38.0,-99.9,29.95,WSW,250,22.0,-999.0,-999,-99.99,,,-99.99,,2013-10-27 12:42:00,
2013-10-27 08:52:00,38.0,-99.9,29.95,WSW,250,22.0,-999.0,-999,-99.99,,,-99.99,,2013-10-27 12:52:00,
2013-10-27 09:00:00,41.0,-99.9,29.95,WSW,250,22.0,-999.0,-999,-99.99,,,-99.99,,2013-10-27 13:00:00,
2013-10-27 09:52:00,41.0,-99.9,29.95,WSW,250,22.0,-999.0,-999,-99.99,,,-99.99,,2013-10-27 13:52:00,
2013-10-27 10:00:00,42.0,-99.9,29.94,West,280,23.0,-999.0,-999,-99.99,,,-99.99,,2013-10-27 14:00:00,
2013-10-27 10:42:00,42.0,-99.9,29.94,West,280,23.0,-999.0,-999,-99.99,,,-99.99,,2013-10-27 14:42:00,
2013-10-27 10:52:00,42.0,-99.9,29.94,West,280,23.0,-999.0,-999,-99.99,,,-99.99,,2013-10-27 14:52:00,
2013-10-27 12:00:00,43.0,-99.9,29.95,WSW,240,24.0,-999.0,-999,-99.99,,,-99.99,,2013-10-27 16:00:00,
2013-10-27 12:43:00,43.0,-99.9,29.95,WSW,240,24.0,-999.0,-999,-99.99,,,-99.99,,2013-10-27 16:43:00,
2013-10-27 12:54:00,43.0,-99.9,29.95,WSW,240,24.0,-999.0,-999,-99.99,,,-99.99,,2013-10-27 16:54:00,
2013-10-27 13:00:00,43.0,-99.9,29.93,WSW,240,11.0,-999.0,-999,-99.99,,,-99.99,,2013-10-27 17:00:00,
2013-10-27 13:43:00,43.0,-99.9,29.93,WSW,240,11.0,-999.0,-999,-99.99,,,-99.99,,2013-10-27 17:43:00,
2013-10-27 13:53:00,43.0,-99.9,29.93,WSW,240,11.0,-999.0,-999,-99.99,,,-99.99,,2013-10-27 17:53:00,
2013-10-27 14:00:00,44.0,-99.9,29.89,WSW,250,14.0,-999.0,-999,-99.99,,,-99.99,,2013-10-27 18:00:00,
2013-10-27 14:43:00,44.0,-99.9,29.89,WSW,250,14.0,-999.0,-999,-99.99,,,-99.99,,2013-10-27 18:43:00,
2013-10-27 14:53:00,44.0,-99.9,29.89,WSW,250,14.0,-999.0,-999,-99.99,,,-99.99,,2013-10-27 18:53:00,
2013-10-27 15:00:00,45.0,-99.9,29.86,WSW,240,21.0,-999.0,-999,-99.99,,,-99.99,,2013-10-27 19:00:00,
2013-10-27 15:42:00,45.0,-99.9,29.86,WSW,240,21.0,-999.0,-999,-99.99,,,-99.99,,2013-10-27 19:42:00,
2013-10-27 15:52:00,45.0,-99.9,29.86,WSW,240,21.0,-999.0,-999,-99.99,,,-99.99,,2013-10-27 19:52:00,
2013-10-27 16:00:00,46.0,-99.9,29.85,SW,220,23.0,-999.0,-999,-99.99,,,-99.99,,2013-10-27 20:00:00,
2013-10-27 16:43:00,46.0,-99.9,29.85,SW,220,23.0,-999.0,-999,-99.99,,,-99.99,,2013-10-27 20:43:00,
2013-10-27 16:52:00,46.0,-99.9,29.85,SW,220,23.0,-999.0,-999,-99.99,,,-99.99,,2013-10-27 20:52:00,
2013-10-27 17:00:00,46.0,-99.9,29.83,SW,230,20.0,-999.0,-999,-99.99,,,-99.99,,2013-10-27 21:00:00,
2013-10-27 17:44:00,46.0,-99.9,29.83,SW,230,20.0,-999.0,-999,-99.99,,,-99.99,,2013-10-27 21:44:00,
2013-10-27 17:54:00,46.0,-99.9,29.83,SW,230,20.0,-999.0,-999,-99.99,,,-99.99,,2013-10-27 21:54:00,
2013-10-27 19:00:00,41.0,-99.9,29.84,NW,320,15.0,-999.0,-999,-99.99,,,-99.99,,2013-10-27 23:00:00,
2013-10-27 19:43:00,41.0,-99.9,29.84,NW,320,15.0,-999.0,-999,-99.99,,,-99.99,,2013-10-27 23:43:00,
2013-10-27 19:52:00,41.0,-99.9,29.84,NW,320,15.0,-999.0,-999,-99.99,,,-99.99,,2013-10-27 23:52:00,